Time;durP1;ratioP1;P1;durP2;ratioP2;P2;SDS_P1;SDS_P2;PMS_P1;PMS_P2;Temp;Humidity;BMP_temperature;BMP_pressure;BME280_temperature;BME280_humidity;BME280_pressure;Samples;Min_cycle;Max_cycle;Signal;HPM_P1;HPM_P2
2021/12/15 00:00:26;;;;;;;26.03;16.40;;;12.70;62.30;;;;;;4971049;28;21161;-56
2021/12/15 00:02:53;;;;;;;27.80;17.40;;;12.70;62.40;;;;;;4965937;28;20223;-57
2021/12/15 00:05:23;;;;;;;23.80;17.30;;;12.70;63.30;;;;;;4963141;28;20522;-56
2021/12/15 00:07:58;;;;;;;26.20;16.37;;;12.70;62.40;;;;;;4966056;28;20972;-56
2021/12/15 00:10:25;;;;;;;27.13;17.87;;;12.70;62.50;;;;;;4970228;28;20884;-56
2021/12/15 00:12:52;;;;;;;25.73;17.33;;;12.70;62.50;;;;;;4967227;28;20465;-56
2021/12/15 00:15:19;;;;;;;25.93;18.20;;;12.70;62.50;;;;;;4963908;28;20876;-57
2021/12/15 00:17:44;;;;;;;23.17;16.80;;;12.70;62.40;;;;;;4962178;28;20801;-56
2021/12/15 00:20:14;;;;;;;23.80;17.13;;;12.70;62.50;;;;;;4964199;28;20449;-56
2021/12/15 00:22:40;;;;;;;29.10;17.30;;;12.70;62.50;;;;;;4964299;28;20223;-56
2021/12/15 00:25:08;;;;;;;26.13;16.90;;;12.70;62.50;;;;;;4960675;28;20450;-56
2021/12/15 00:27:34;;;;;;;28.00;17.90;;;12.70;62.50;;;;;;4966083;28;20973;-56
2021/12/15 00:29:59;;;;;;;26.90;18.33;;;12.70;62.50;;;;;;4969786;28;20446;-56
2021/12/15 00:32:25;;;;;;;24.17;17.87;;;12.70;62.40;;;;;;4962890;28;20443;-58
2021/12/15 00:34:51;;;;;;;25.30;16.63;;;12.70;62.20;;;;;;4963438;28;20194;-56
2021/12/15 00:37:18;;;;;;;24.57;17.47;;;12.70;61.90;;;;;;4962571;28;20734;-56
2021/12/15 00:39:44;;;;;;;25.37;17.30;;;12.50;61.90;;;;;;4965820;28;20618;-56
2021/12/15 00:42:10;;;;;;;21.27;16.10;;;12.40;62.60;;;;;;4964305;28;20475;-56
2021/12/15 00:44:36;;;;;;;26.10;16.73;;;12.40;63.00;;;;;;4968826;28;20191;-55
2021/12/15 00:47:03;;;;;;;26.70;16.70;;;12.40;62.80;;;;;;4969081;28;20282;-56
2021/12/15 00:49:29;;;;;;;29.73;18.90;;;12.50;62.90;;;;;;4965898;28;20547;-57
2021/12/15 00:51:56;;;;;;;28.80;19.17;;;12.50;62.90;;;;;;4962473;28;20435;-56
2021/12/15 00:54:22;;;;;;;27.93;17.87;;;12.60;62.90;;;;;;4960635;28;20195;-56
2021/12/15 00:56:50;;;;;;;22.03;17.07;;;12.60;62.90;;;;;;4964551;28;20452;-57
2021/12/15 00:59:16;;;;;;;28.60;18.10;;;12.60;62.90;;;;;;4963804;28;20866;-56
2021/12/15 01:01:42;;;;;;;28.23;18.63;;;12.60;62.90;;;;;;4963747;28;20530;-56
2021/12/15 01:04:11;;;;;;;27.80;19.07;;;12.60;62.90;;;;;;4966419;28;20239;-56
2021/12/15 01:06:40;;;;;;;25.17;17.73;;;12.60;62.90;;;;;;4964032;28;20223;-58
2021/12/15 01:09:20;;;;;;;25.43;17.20;;;12.60;62.80;;;;;;4964469;28;20458;-55
2021/12/15 01:14:35;;;;;;;23.57;16.30;;;12.60;62.70;;;;;;4961860;28;20949;-57
2021/12/15 01:19:54;;;;;;;25.30;17.23;;;12.60;62.40;;;;;;4962729;28;20486;-56
2021/12/15 01:22:39;;;;;;;26.00;16.80;;;12.60;62.70;;;;;;4962303;28;20459;-56
2021/12/15 01:25:13;;;;;;;24.77;16.77;;;12.60;62.70;;;;;;4962303;28;20447;-56
2021/12/15 01:27:39;;;;;;;25.17;16.47;;;12.60;62.60;;;;;;4962985;28;22353;-56
2021/12/15 01:30:08;;;;;;;26.20;18.53;;;12.60;62.60;;;;;;4966072;28;20835;-56
2021/12/15 01:32:34;;;;;;;25.53;17.07;;;12.20;63.40;;;;;;4962536;28;20474;-57
2021/12/15 01:35:00;;;;;;;31.63;17.90;;;12.30;63.70;;;;;;4962964;28;20486;-56
2021/12/15 01:37:25;;;;;;;24.07;16.57;;;12.40;63.70;;;;;;4962613;28;20447;-56
2021/12/15 01:39:54;;;;;;;29.80;18.67;;;12.40;63.50;;;;;;4966629;28;20628;-57
2021/12/15 01:42:25;;;;;;;26.60;18.10;;;12.50;63.40;;;;;;4960385;28;20203;-57
2021/12/15 01:47:35;;;;;;;23.00;16.37;;;12.50;62.90;;;;;;4963703;28;20594;-56
2021/12/15 01:50:01;;;;;;;21.80;16.43;;;12.50;62.80;;;;;;4959968;28;20573;-57
2021/12/15 01:52:30;;;;;;;27.90;16.70;;;12.50;62.70;;;;;;4967921;28;20227;-56
2021/12/15 01:55:05;;;;;;;26.17;16.97;;;12.60;62.70;;;;;;4961644;28;20192;-56
2021/12/15 01:57:34;;;;;;;25.87;16.07;;;12.60;62.80;;;;;;4961599;28;20480;-57
2021/12/15 02:00:06;;;;;;;28.10;18.20;;;12.60;62.80;;;;;;4965318;28;20461;-57
2021/12/15 02:02:32;;;;;;;24.53;16.57;;;12.50;62.80;;;;;;4963366;28;20485;-56
2021/12/15 02:04:57;;;;;;;24.23;16.27;;;12.60;62.90;;;;;;4966026;28;20458;-56
2021/12/15 02:07:24;;;;;;;26.93;17.33;;;12.30;63.00;;;;;;4971067;28;20195;-56
2021/12/15 02:12:22;;;;;;;24.10;16.40;;;12.30;63.40;;;;;;4966375;28;20496;-55
2021/12/15 02:14:49;;;;;;;24.10;17.27;;;12.30;63.70;;;;;;4971485;28;20462;-56
2021/12/15 02:17:16;;;;;;;26.40;19.57;;;12.30;63.40;;;;;;4966212;28;20466;-56
2021/12/15 02:19:43;;;;;;;31.00;17.73;;;12.20;63.70;;;;;;4960286;28;20455;-56
2021/12/15 02:22:09;;;;;;;23.87;17.17;;;12.00;63.80;;;;;;4956679;28;20843;-56
2021/12/15 02:24:36;;;;;;;25.87;17.70;;;11.70;64.60;;;;;;4961346;28;20451;-55
2021/12/15 02:27:03;;;;;;;24.90;16.93;;;11.90;65.40;;;;;;4963323;28;20502;-57
2021/12/15 02:29:34;;;;;;;27.47;15.90;;;11.90;65.10;;;;;;4962892;28;20462;-56
2021/12/15 02:37:20;;;;;;;27.77;16.53;;;12.10;64.50;;;;;;4961539;28;20454;-56
2021/12/15 02:40:01;;;;;;;27.37;17.63;;;12.20;64.40;;;;;;4966339;28;21004;-56
2021/12/15 02:42:42;;;;;;;27.10;17.43;;;12.20;64.10;;;;;;4968943;28;20478;-56
2021/12/15 02:45:10;;;;;;;28.27;16.47;;;12.30;63.90;;;;;;4969741;28;20453;-56
2021/12/15 02:47:36;;;;;;;22.00;16.07;;;12.40;63.50;;;;;;4967875;28;20470;-56
2021/12/15 02:50:06;;;;;;;30.20;18.40;;;12.40;63.40;;;;;;4969608;28;20534;-56
2021/12/15 02:52:32;;;;;;;24.03;15.90;;;12.40;63.50;;;;;;4961438;28;20455;-56
2021/12/15 02:54:58;;;;;;;30.37;16.17;;;12.40;63.30;;;;;;4965720;28;20450;-56
2021/12/15 02:57:24;;;;;;;24.07;15.90;;;12.40;63.20;;;;;;4966482;28;20446;-56
2021/12/15 03:02:54;;;;;;;27.23;16.20;;;12.40;63.30;;;;;;4969139;28;20199;-56
2021/12/15 03:07:46;;;;;;;27.73;17.00;;;12.40;63.10;;;;;;4967139;28;20457;-55
2021/12/15 03:15:45;;;;;;;24.13;15.13;;;12.40;63.40;;;;;;4968479;28;20469;-56
2021/12/15 03:18:18;;;;;;;25.53;16.33;;;12.40;63.30;;;;;;4966396;28;20451;-56
2021/12/15 03:20:59;;;;;;;26.27;16.63;;;12.40;63.20;;;;;;4963352;28;20226;-56
2021/12/15 03:23:28;;;;;;;26.33;15.83;;;12.40;63.00;;;;;;4966006;28;20501;-56
2021/12/15 03:25:55;;;;;;;28.63;17.50;;;12.50;62.90;;;;;;4962982;28;20454;-54
2021/12/15 03:34:10;;;;;;;27.47;18.07;;;12.50;62.80;;;;;;4967170;28;20498;-55
2021/12/15 03:37:08;;;;;;;28.67;17.50;;;12.50;63.00;;;;;;4963845;28;20890;-56
2021/12/15 03:39:43;;;;;;;27.20;17.30;;;12.50;63.00;;;;;;4965489;28;20522;-56
2021/12/15 03:42:10;;;;;;;29.93;18.10;;;12.50;62.80;;;;;;4968913;28;20458;-55
2021/12/15 03:44:38;;;;;;;23.80;15.80;;;12.50;62.90;;;;;;4966917;28;20461;-56
2021/12/15 03:47:08;;;;;;;25.80;16.83;;;12.50;63.00;;;;;;4962921;28;20446;-56
2021/12/15 03:49:35;;;;;;;27.07;16.90;;;12.60;62.90;;;;;;4965031;28;20501;-55
2021/12/15 03:52:03;;;;;;;28.43;16.80;;;12.50;62.10;;;;;;4965677;28;20458;-56
2021/12/15 03:54:28;;;;;;;27.17;16.97;;;12.50;62.80;;;;;;4966761;28;20450;-57
2021/12/15 03:56:55;;;;;;;25.03;16.63;;;12.50;62.90;;;;;;4965805;28;20446;-56
2021/12/15 03:59:23;;;;;;;30.63;17.23;;;12.50;62.90;;;;;;4970564;28;20195;-56
2021/12/15 04:01:48;;;;;;;31.50;16.07;;;12.50;62.90;;;;;;4965016;28;20442;-56
2021/12/15 04:04:14;;;;;;;33.63;18.27;;;12.50;62.80;;;;;;4968674;28;20517;-56
2021/12/15 04:06:41;;;;;;;29.83;17.17;;;12.50;62.60;;;;;;4965201;28;20199;-56
2021/12/15 04:09:11;;;;;;;31.57;17.67;;;12.50;63.40;;;;;;4964032;28;20204;-56
2021/12/15 04:11:38;;;;;;;31.23;19.10;;;12.40;62.80;;;;;;4958488;28;20457;-56
2021/12/15 04:14:08;;;;;;;34.20;18.87;;;12.30;62.90;;;;;;4965044;28;20497;-56
2021/12/15 04:19:04;;;;;;;36.50;20.73;;;12.30;63.70;;;;;;4964918;28;21034;-55
2021/12/15 04:21:30;;;;;;;33.27;18.20;;;12.40;63.50;;;;;;4963230;28;20854;-56
2021/12/15 04:23:57;;;;;;;29.23;17.63;;;12.40;63.30;;;;;;4963517;28;20497;-56
2021/12/15 04:26:24;;;;;;;28.17;16.80;;;12.50;63.20;;;;;;4965452;28;20203;-56
2021/12/15 04:28:50;;;;;;;33.90;18.33;;;12.40;63.10;;;;;;4959089;28;20488;-56
2021/12/15 04:31:22;;;;;;;28.83;17.17;;;12.40;63.40;;;;;;4963139;28;20470;-56
2021/12/15 04:34:08;;;;;;;31.53;16.90;;;12.40;63.40;;;;;;4964045;28;20519;-56
2021/12/15 04:36:40;;;;;;;27.10;16.33;;;12.40;63.20;;;;;;4961936;28;20505;-56
2021/12/15 04:39:08;;;;;;;28.10;16.60;;;12.30;63.20;;;;;;4959330;28;20966;-56
2021/12/15 04:41:34;;;;;;;26.50;16.73;;;12.30;63.20;;;;;;4957873;28;20930;-56
2021/12/15 04:44:03;;;;;;;27.83;16.60;;;12.30;63.30;;;;;;4962032;28;20535;-56
2021/12/15 04:46:32;;;;;;;26.53;16.20;;;12.30;63.20;;;;;;4962974;28;20454;-55
2021/12/15 04:48:58;;;;;;;27.27;16.57;;;12.20;63.50;;;;;;4966057;28;20530;-55
2021/12/15 04:51:24;;;;;;;26.00;16.37;;;12.20;63.70;;;;;;4964702;28;21017;-55
2021/12/15 04:53:52;;;;;;;24.53;15.60;;;12.20;63.60;;;;;;4969725;28;20250;-55
2021/12/15 04:56:20;;;;;;;29.23;16.93;;;12.20;63.70;;;;;;4966510;28;20449;-57
2021/12/15 04:58:49;;;;;;;28.10;17.03;;;12.30;63.50;;;;;;4964354;28;20473;-56
2021/12/15 05:01:16;;;;;;;25.47;17.33;;;12.40;63.50;;;;;;4957937;28;20444;-55
2021/12/15 05:03:43;;;;;;;30.20;18.20;;;12.30;63.20;;;;;;4962562;28;20580;-55
2021/12/15 05:06:09;;;;;;;30.27;18.40;;;12.30;63.20;;;;;;4967026;28;20435;-56
2021/12/15 05:08:36;;;;;;;27.93;16.90;;;12.20;63.00;;;;;;4962189;28;20977;-56
2021/12/15 05:11:04;;;;;;;28.13;16.90;;;11.90;63.90;;;;;;4967145;28;20598;-56
2021/12/15 05:13:29;;;;;;;24.93;16.30;;;11.90;64.90;;;;;;4963440;28;20549;-57
2021/12/15 05:15:55;;;;;;;25.63;16.67;;;12.00;64.60;;;;;;4962362;28;20529;-56
2021/12/15 05:18:22;;;;;;;24.60;16.17;;;12.10;65.30;;;;;;4970308;28;20262;-57
2021/12/15 05:20:50;;;;;;;23.23;16.40;;;12.20;64.20;;;;;;4971210;28;20199;-55
2021/12/15 05:23:17;;;;;;;30.63;18.50;;;12.20;63.70;;;;;;4966802;28;20832;-57
2021/12/15 05:25:45;;;;;;;26.73;16.03;;;12.20;63.90;;;;;;4963556;28;20451;-55
2021/12/15 05:28:11;;;;;;;27.60;16.93;;;12.30;63.70;;;;;;4961732;28;20486;-55
2021/12/15 05:30:37;;;;;;;28.47;17.63;;;12.20;63.60;;;;;;4965711;28;20865;-56
2021/12/15 05:33:03;;;;;;;22.60;15.27;;;12.20;63.50;;;;;;4964613;28;20451;-56
2021/12/15 05:35:30;;;;;;;26.20;18.00;;;12.30;63.40;;;;;;4962793;28;20451;-56
2021/12/15 05:37:58;;;;;;;25.40;16.97;;;12.40;63.30;;;;;;4962453;28;20447;-56
2021/12/15 05:40:26;;;;;;;25.27;16.97;;;12.10;63.50;;;;;;4964474;28;20948;-56
2021/12/15 05:42:56;;;;;;;26.23;16.67;;;12.10;64.00;;;;;;4970569;28;20501;-55
2021/12/15 05:45:23;;;;;;;23.63;16.23;;;12.10;63.90;;;;;;4969921;28;20794;-55
2021/12/15 05:47:48;;;;;;;24.10;16.80;;;12.20;63.90;;;;;;4963255;28;20443;-56
2021/12/15 05:50:14;;;;;;;26.57;16.47;;;12.20;63.80;;;;;;4963306;28;20446;-57
2021/12/15 05:52:40;;;;;;;25.00;15.30;;;12.20;63.90;;;;;;4970419;28;20560;-54
2021/12/15 05:55:09;;;;;;;25.70;16.63;;;12.20;63.70;;;;;;4969744;28;20249;-56
2021/12/15 05:57:35;;;;;;;23.80;15.13;;;12.20;63.90;;;;;;4965601;28;20938;-56
2021/12/15 06:00:05;;;;;;;27.10;17.50;;;11.90;64.20;;;;;;4967786;28;20497;-56
2021/12/15 06:02:31;;;;;;;20.87;15.30;;;11.90;64.50;;;;;;4972273;28;20195;-56
2021/12/15 06:04:57;;;;;;;27.03;16.60;;;12.10;64.40;;;;;;4969971;28;20442;-55
2021/12/15 06:07:22;;;;;;;26.43;15.87;;;12.00;64.30;;;;;;4960899;28;20217;-56
2021/12/15 06:09:48;;;;;;;24.27;15.40;;;12.00;64.30;;;;;;4960518;28;20887;-55
2021/12/15 06:12:14;;;;;;;24.43;15.13;;;12.00;64.20;;;;;;4964003;28;20196;-55
2021/12/15 06:14:39;;;;;;;25.53;16.47;;;12.00;64.40;;;;;;4965126;28;20205;-55
2021/12/15 06:17:08;;;;;;;22.10;14.93;;;12.10;64.30;;;;;;4961959;28;20977;-55
2021/12/15 06:19:34;;;;;;;26.73;17.27;;;12.10;64.10;;;;;;4960442;28;20207;-55
2021/12/15 06:22:00;;;;;;;28.07;17.10;;;12.10;64.00;;;;;;4964517;28;21209;-56
2021/12/15 06:24:26;;;;;;;22.47;14.50;;;11.90;64.20;;;;;;4959652;28;20593;-56
2021/12/15 06:26:52;;;;;;;24.40;15.30;;;11.80;65.40;;;;;;4960326;28;20494;-55
2021/12/15 06:29:18;;;;;;;27.30;16.33;;;11.90;66.10;;;;;;4961614;28;20846;-54
2021/12/15 06:31:45;;;;;;;23.67;14.30;;;12.10;66.00;;;;;;4963785;28;20203;-53
2021/12/15 06:34:10;;;;;;;22.73;14.83;;;12.30;65.80;;;;;;4962795;28;20203;-55
2021/12/15 06:36:36;;;;;;;28.47;16.63;;;12.40;65.50;;;;;;4972327;28;20992;-54
2021/12/15 06:39:05;;;;;;;23.73;15.70;;;12.60;65.10;;;;;;4971904;28;20192;-55
2021/12/15 06:41:31;;;;;;;26.13;16.73;;;12.60;63.70;;;;;;4970265;28;20522;-55
2021/12/15 06:43:58;;;;;;;26.73;17.00;;;12.70;63.50;;;;;;4966661;28;20585;-54
2021/12/15 06:58:11;;;;;;;24.30;16.13;;;12.70;62.90;;;;;;4970620;28;20429;-54
2021/12/15 07:00:20;;;;;;;23.90;16.27;;;12.70;62.40;;;;;;4969758;28;20545;-56
2021/12/15 07:02:46;;;;;;;26.23;16.67;;;12.80;62.20;;;;;;4970925;28;20553;-56
2021/12/15 07:05:13;;;;;;;26.70;16.97;;;12.80;62.00;;;;;;4969023;28;20601;-55
2021/12/15 07:07:42;;;;;;;23.97;15.67;;;13.00;62.00;;;;;;4970318;28;20607;-56
2021/12/15 07:10:15;;;;;;;23.07;14.43;;;13.00;61.70;;;;;;4968328;28;20447;-56
2021/12/15 07:12:41;;;;;;;21.77;15.23;;;13.00;61.40;;;;;;4961956;28;20910;-55
2021/12/15 07:15:11;;;;;;;26.37;17.10;;;13.00;60.80;;;;;;4969715;28;20509;-57
2021/12/15 07:17:40;;;;;;;22.70;13.80;;;13.10;60.70;;;;;;4970803;28;20565;-55
2021/12/15 07:22:53;;;;;;;24.00;16.17;;;13.10;60.70;;;;;;4971839;28;20929;-56
2021/12/15 07:25:21;;;;;;;22.23;14.83;;;13.00;60.40;;;;;;4966579;28;20448;-55
2021/12/15 07:27:47;;;;;;;22.57;14.57;;;12.90;61.10;;;;;;4957723;28;20470;-55
2021/12/15 07:30:14;;;;;;;21.37;14.13;;;12.80;61.20;;;;;;4975181;28;20794;-56
2021/12/15 07:32:55;;;;;;;26.43;15.70;;;12.90;61.30;;;;;;4973493;28;20473;-55
2021/12/15 07:35:23;;;;;;;24.63;15.10;;;13.10;61.20;;;;;;4965058;28;20813;-56
2021/12/15 07:37:49;;;;;;;23.73;17.10;;;13.00;60.70;;;;;;4975249;28;20430;-55
2021/12/15 07:40:20;;;;;;;23.50;16.43;;;13.00;60.80;;;;;;4974995;28;20922;-55
2021/12/15 07:43:06;;;;;;;25.77;14.60;;;13.10;60.70;;;;;;4975047;28;20314;-54
2021/12/15 07:45:44;;;;;;;25.97;15.83;;;13.20;60.50;;;;;;4974363;28;20449;-55
2021/12/15 07:48:13;;;;;;;23.50;15.97;;;13.30;60.40;;;;;;4974026;28;20854;-56
2021/12/15 07:50:42;;;;;;;22.57;15.33;;;13.40;59.90;;;;;;4974521;28;20434;-55
2021/12/15 07:53:09;;;;;;;23.23;15.60;;;13.40;59.70;;;;;;4975248;28;20442;-55
2021/12/15 07:55:36;;;;;;;21.43;15.17;;;13.30;59.70;;;;;;4974344;28;20443;-55
2021/12/15 07:58:04;;;;;;;21.23;15.00;;;13.30;59.90;;;;;;4974192;28;20870;-55
2021/12/15 08:00:30;;;;;;;22.53;15.40;;;13.30;59.70;;;;;;4973958;28;20426;-55
2021/12/15 08:02:56;;;;;;;17.30;12.87;;;13.30;59.80;;;;;;4975093;28;20482;-55
2021/12/15 08:05:22;;;;;;;17.23;12.97;;;13.30;59.80;;;;;;4970427;28;20195;-56
2021/12/15 08:07:48;;;;;;;21.87;15.20;;;13.10;59.70;;;;;;4973681;28;20446;-55
2021/12/15 08:10:14;;;;;;;22.23;14.70;;;13.00;59.90;;;;;;4961514;28;20426;-56
2021/12/15 08:12:43;;;;;;;22.97;15.07;;;13.00;60.30;;;;;;4974301;28;20482;-57
2021/12/15 08:15:10;;;;;;;21.43;14.83;;;13.10;60.00;;;;;;4972665;28;20509;-55
2021/12/15 08:17:38;;;;;;;19.03;12.87;;;13.20;59.80;;;;;;4974893;28;20423;-56
2021/12/15 08:20:07;;;;;;;20.40;14.80;;;13.00;60.00;;;;;;4974059;28;20461;-54
2021/12/15 08:22:34;;;;;;;19.93;14.50;;;13.10;60.00;;;;;;4973656;28;20533;-56
2021/12/15 08:24:59;;;;;;;18.27;13.07;;;13.10;60.10;;;;;;4971968;28;20458;-56
2021/12/15 08:27:25;;;;;;;21.30;14.07;;;13.20;59.80;;;;;;4971358;28;20870;-56
2021/12/15 08:29:51;;;;;;;19.80;13.20;;;13.20;59.80;;;;;;4974204;28;20195;-55
2021/12/15 08:32:17;;;;;;;18.60;13.07;;;13.30;59.60;;;;;;4971925;28;20661;-56
2021/12/15 08:34:43;;;;;;;17.70;12.40;;;13.20;59.40;;;;;;4971614;28;20294;-56
2021/12/15 08:37:13;;;;;;;18.33;13.00;;;13.30;59.40;;;;;;4968647;28;20525;-55
2021/12/15 08:39:41;;;;;;;15.40;11.30;;;13.20;59.50;;;;;;4972300;28;20250;-56
2021/12/15 08:42:08;;;;;;;15.30;11.03;;;13.20;59.40;;;;;;4970952;28;20930;-56
2021/12/15 08:44:33;;;;;;;12.40;9.37;;;13.10;59.30;;;;;;4972712;28;20601;-56
2021/12/15 08:46:59;;;;;;;14.37;10.27;;;13.00;58.80;;;;;;4971644;28;21093;-55
2021/12/15 08:49:25;;;;;;;11.07;9.50;;;12.80;58.90;;;;;;4974447;28;20223;-56
2021/12/15 08:51:51;;;;;;;11.23;9.37;;;13.00;59.00;;;;;;4960956;28;20326;-56
2021/12/15 08:54:19;;;;;;;11.03;9.17;;;13.10;58.40;;;;;;4973497;28;20203;-56
2021/12/15 08:56:46;;;;;;;12.50;9.03;;;13.00;58.20;;;;;;4972555;28;20199;-55
2021/12/15 08:59:13;;;;;;;10.60;8.23;;;13.00;58.60;;;;;;4965031;28;21077;-56
2021/12/15 09:01:40;;;;;;;12.13;9.33;;;13.10;58.40;;;;;;4970407;28;20529;-55
2021/12/15 09:04:06;;;;;;;9.03;7.97;;;13.20;58.20;;;;;;4972057;28;20488;-56
2021/12/15 09:06:32;;;;;;;11.40;8.67;;;13.20;58.10;;;;;;4972894;28;20439;-55
2021/12/15 09:08:58;;;;;;;10.53;8.77;;;13.20;57.70;;;;;;4971139;28;20202;-56
2021/12/15 09:11:25;;;;;;;12.57;9.97;;;13.30;57.70;;;;;;4972745;28;20447;-55
2021/12/15 09:13:54;;;;;;;13.10;10.33;;;13.20;57.10;;;;;;4972184;28;20275;-56
2021/12/15 09:16:22;;;;;;;14.50;10.00;;;13.30;57.40;;;;;;4972267;28;20442;-55
2021/12/15 09:18:53;;;;;;;13.53;11.30;;;13.30;57.00;;;;;;4971468;28;20502;-55
2021/12/15 09:21:22;;;;;;;11.70;9.83;;;13.30;57.40;;;;;;4968781;28;21301;-56
2021/12/15 09:23:49;;;;;;;11.20;9.10;;;13.30;56.80;;;;;;4966683;28;20505;-55
2021/12/15 09:26:15;;;;;;;10.63;8.13;;;12.90;57.20;;;;;;4968979;28;20855;-56
2021/12/15 09:28:40;;;;;;;12.13;8.73;;;12.70;57.90;;;;;;4961315;28;20515;-55
2021/12/15 09:31:07;;;;;;;12.43;10.33;;;12.80;58.20;;;;;;4962221;28;20517;-56
2021/12/15 09:33:34;;;;;;;14.17;11.20;;;12.80;57.80;;;;;;4968013;28;20199;-56
2021/12/15 09:36:02;;;;;;;9.80;8.63;;;12.80;57.90;;;;;;4967396;28;20446;-56
2021/12/15 09:38:28;;;;;;;10.23;9.00;;;12.60;58.10;;;;;;4967975;28;21021;-56
2021/12/15 09:40:57;;;;;;;11.27;8.90;;;12.20;58.50;;;;;;4968392;28;20434;-54
2021/12/15 09:43:27;;;;;;;11.83;9.20;;;11.80;59.80;;;;;;4969955;28;20509;-50
2021/12/15 09:46:01;;;;;;;12.20;9.17;;;11.90;59.90;;;;;;4966665;28;20442;-54
2021/12/15 10:02:42;;;;;;;11.33;9.10;;;12.30;59.00;;;;;;4967246;28;21028;-54
2021/12/15 10:05:23;;;;;;;11.17;9.37;;;12.50;59.10;;;;;;4965132;28;20470;-54
2021/12/15 10:10:50;;;;;;;13.30;10.00;;;12.70;58.90;;;;;;4967948;28;20497;-54
2021/12/15 10:19:09;;;;;;;13.13;10.23;;;12.90;58.40;;;;;;4970751;28;20845;-54
2021/12/15 10:21:34;;;;;;;11.33;9.10;;;12.90;58.10;;;;;;4966848;28;20438;-53
2021/12/15 10:24:00;;;;;;;13.47;9.90;;;12.90;57.90;;;;;;4967162;28;21122;-54
2021/12/15 10:26:26;;;;;;;10.50;9.13;;;13.00;57.70;;;;;;4967530;28;20191;-54
2021/12/15 10:28:53;;;;;;;11.63;9.40;;;13.00;57.50;;;;;;4966307;28;20466;-52
2021/12/15 10:31:24;;;;;;;10.57;9.47;;;12.90;57.70;;;;;;4964078;28;20453;-53
2021/12/15 10:33:56;;;;;;;10.70;9.67;;;13.00;57.80;;;;;;4963881;28;20438;-53
2021/12/15 10:36:29;;;;;;;10.60;8.80;;;12.90;58.00;;;;;;4968437;28;20442;-53
2021/12/15 10:39:07;;;;;;;14.93;9.63;;;12.90;58.00;;;;;;4965323;28;20444;-54
2021/12/15 10:41:35;;;;;;;13.63;8.93;;;12.90;57.90;;;;;;4966483;28;20434;-54
2021/12/15 10:44:17;;;;;;;10.50;7.10;;;13.00;57.90;;;;;;4968979;28;20529;-54
2021/12/15 10:46:51;;;;;;;8.47;7.57;;;13.00;57.30;;;;;;4966910;28;20533;-53
2021/12/15 10:49:24;;;;;;;12.73;8.17;;;12.30;58.10;;;;;;4970747;28;20506;-54
2021/12/15 10:51:59;;;;;;;4.87;4.17;;;12.30;58.70;;;;;;4971396;28;20453;-54
2021/12/15 10:54:36;;;;;;;4.10;3.60;;;12.00;57.80;;;;;;4967412;28;20820;-53
2021/12/15 10:57:21;;;;;;;5.10;4.50;;;11.50;58.80;;;;;;4967047;28;20525;-53
2021/12/15 10:59:50;;;;;;;5.33;4.40;;;11.40;59.00;;;;;;4967461;28;20446;-54
2021/12/15 11:02:24;;;;;;;4.90;4.17;;;11.10;59.50;;;;;;4970941;28;20992;-63
2021/12/15 11:04:53;;;;;;;6.33;5.07;;;11.20;59.90;;;;;;4964327;28;20451;-55
2021/12/15 11:07:33;;;;;;;4.67;4.23;;;11.30;59.70;;;;;;4973757;28;20446;-55
2021/12/15 11:10:25;;;;;;;4.93;4.13;;;11.10;59.50;;;;;;4972910;28;20446;-54
2021/12/15 11:12:57;;;;;;;6.97;3.90;;;11.20;60.30;;;;;;4973638;28;20856;-55
2021/12/15 11:15:36;;;;;;;4.53;4.13;;;11.00;59.80;;;;;;4974152;28;20532;-52
2021/12/15 11:18:14;;;;;;;4.70;4.10;;;10.60;60.00;;;;;;4972687;28;20470;-54
2021/12/15 11:20:44;;;;;;;5.17;4.40;;;10.50;61.40;;;;;;4968943;28;20442;-53
2021/12/15 11:23:11;;;;;;;7.13;4.83;;;10.60;61.60;;;;;;4969808;28;20502;-54
2021/12/15 11:25:52;;;;;;;3.90;3.60;;;10.80;61.20;;;;;;4971850;28;20431;-53
2021/12/15 11:28:21;;;;;;;4.43;3.83;;;10.80;60.50;;;;;;4966533;28;20481;-53
2021/12/15 11:30:55;;;;;;;4.33;3.40;;;11.10;60.10;;;;;;4963895;28;20450;-54
2021/12/15 11:33:45;;;;;;;3.97;3.50;;;11.20;59.10;;;;;;4966370;28;20445;-53
2021/12/15 11:36:16;;;;;;;4.87;4.30;;;11.00;59.10;;;;;;4970049;28;20450;-55
2021/12/15 11:38:45;;;;;;;5.80;3.93;;;10.90;59.40;;;;;;4972197;28;20546;-53
2021/12/15 11:41:13;;;;;;;4.77;3.57;;;10.90;59.80;;;;;;4968824;28;20446;-56
2021/12/15 11:43:42;;;;;;;6.10;4.00;;;10.90;59.50;;;;;;4971386;28;20490;-57
2021/12/15 11:46:25;;;;;;;3.83;3.43;;;10.90;59.10;;;;;;4971121;28;20450;-56
2021/12/15 11:48:56;;;;;;;4.20;3.80;;;10.50;60.40;;;;;;4971487;28;20522;-55
2021/12/15 11:51:46;;;;;;;3.27;3.07;;;10.40;61.20;;;;;;4971016;28;20435;-56
2021/12/15 11:54:26;;;;;;;3.37;3.17;;;10.40;61.10;;;;;;4971937;28;20450;-55
2021/12/15 11:57:12;;;;;;;3.17;2.97;;;10.60;61.10;;;;;;4971276;28;20426;-56
2021/12/15 11:59:42;;;;;;;3.63;3.33;;;10.50;60.70;;;;;;4970817;28;20442;-53
2021/12/15 12:02:29;;;;;;;4.47;4.07;;;10.50;60.90;;;;;;4970554;28;20508;-55
2021/12/15 12:04:58;;;;;;;4.53;3.97;;;10.70;60.00;;;;;;4971106;28;20463;-56
2021/12/15 12:07:29;;;;;;;4.33;3.93;;;10.50;60.20;;;;;;4969664;28;20446;-52
2021/12/15 12:09:57;;;;;;;4.07;3.77;;;10.60;60.60;;;;;;4969120;28;20529;-55
2021/12/15 12:12:28;;;;;;;4.03;3.67;;;10.60;60.50;;;;;;4970649;28;20442;-53
2021/12/15 12:14:53;;;;;;;3.30;3.07;;;10.70;60.50;;;;;;4970205;28;20856;-56
2021/12/15 12:17:24;;;;;;;4.10;3.70;;;11.10;59.70;;;;;;4970596;28;20533;-53
2021/12/15 12:20:13;;;;;;;3.60;3.30;;;10.90;59.60;;;;;;4970631;28;20187;-54
2021/12/15 12:22:40;;;;;;;4.00;3.70;;;10.70;60.40;;;;;;4969814;28;20450;-55
2021/12/15 12:25:38;;;;;;;3.90;3.47;;;10.50;60.80;;;;;;4970944;28;20804;-52
2021/12/15 12:28:11;;;;;;;3.83;3.20;;;10.60;61.10;;;;;;4955735;28;20471;-54
2021/12/15 12:30:43;;;;;;;3.93;2.70;;;10.70;60.90;;;;;;4968178;28;20454;-54
2021/12/15 12:33:12;;;;;;;3.30;3.10;;;11.00;59.80;;;;;;4967101;28;20938;-54
2021/12/15 12:35:48;;;;;;;2.87;2.67;;;11.10;59.70;;;;;;4972223;28;20795;-56
2021/12/15 12:38:18;;;;;;;2.93;2.73;;;11.00;59.60;;;;;;4971883;28;20517;-53
2021/12/15 12:41:14;;;;;;;3.47;3.17;;;11.00;59.40;;;;;;4969919;28;20435;-55
2021/12/15 12:43:47;;;;;;;3.30;3.00;;;11.20;59.20;;;;;;4971352;28;20613;-56
2021/12/15 12:46:50;;;;;;;3.40;3.10;;;11.00;58.90;;;;;;4969074;28;20442;-54
2021/12/15 12:50:01;;;;;;;3.50;3.20;;;10.70;59.60;;;;;;4969991;28;20470;-53
2021/12/15 13:00:57;;;;;;;2.90;2.70;;;11.10;59.20;;;;;;4968195;28;20488;-53
2021/12/15 13:03:34;;;;;;;3.13;2.83;;;11.10;59.10;;;;;;4963553;28;20496;-51
2021/12/15 13:06:02;;;;;;;3.07;2.77;;;11.30;58.70;;;;;;4970748;28;20450;-54
2021/12/15 13:08:34;;;;;;;2.97;2.67;;;11.00;59.00;;;;;;4967717;28;20471;-53
2021/12/15 13:11:14;;;;;;;5.10;2.73;;;11.10;59.10;;;;;;4961707;28;20486;-54
2021/12/15 13:14:01;;;;;;;3.00;2.73;;;11.40;58.30;;;;;;4965305;28;20447;-54
2021/12/15 13:16:51;;;;;;;3.23;3.03;;;11.60;58.10;;;;;;4968513;28;20443;-57
2021/12/15 13:19:20;;;;;;;3.00;2.80;;;11.70;57.90;;;;;;4967771;28;20811;-52
2021/12/15 13:30:47;;;;;;;2.70;2.50;;;11.60;58.10;;;;;;4967691;28;20956;-54
2021/12/15 13:33:18;;;;;;;2.43;2.27;;;11.50;58.20;;;;;;4970501;28;20445;-54
2021/12/15 13:35:48;;;;;;;2.70;2.50;;;11.60;57.90;;;;;;4970705;28;20450;-54
2021/12/15 13:38:28;;;;;;;2.83;2.63;;;11.60;57.60;;;;;;4968483;28;20446;-51
2021/12/15 13:41:03;;;;;;;3.90;3.50;;;11.70;57.60;;;;;;4966590;28;20946;-53
2021/12/15 13:43:39;;;;;;;3.60;3.30;;;11.80;58.10;;;;;;4967767;28;20521;-52
2021/12/15 13:46:23;;;;;;;4.10;3.80;;;11.70;57.60;;;;;;4967212;28;20443;-54
2021/12/15 13:49:24;;;;;;;3.83;3.53;;;11.70;57.60;;;;;;4965561;28;20482;-54
2021/12/15 13:52:04;;;;;;;3.67;3.37;;;11.60;58.00;;;;;;4948671;28;20530;-54
2021/12/15 13:54:32;;;;;;;3.13;2.93;;;11.60;57.90;;;;;;4968066;28;20530;-54
2021/12/15 13:57:13;;;;;;;3.10;2.90;;;11.50;58.10;;;;;;4967114;28;20858;-53
2021/12/15 13:59:45;;;;;;;3.40;3.20;;;11.40;58.10;;;;;;4964562;28;20431;-54
2021/12/15 14:02:16;;;;;;;3.57;3.20;;;11.20;59.30;;;;;;4965314;28;20918;-53
2021/12/15 14:04:53;;;;;;;3.57;3.27;;;10.90;59.20;;;;;;4967621;28;20486;-53
2021/12/15 14:07:30;;;;;;;3.50;3.20;;;11.00;59.40;;;;;;4966227;28;20458;-53
2021/12/15 14:10:21;;;;;;;3.50;3.20;;;11.00;59.30;;;;;;4968660;28;21073;-54
2021/12/15 14:12:49;;;;;;;7.67;5.20;;;10.70;59.80;;;;;;4962595;28;20811;-54
2021/12/15 14:15:34;;;;;;;4.30;3.90;;;11.00;59.60;;;;;;4968567;28;20446;-54
2021/12/15 14:18:23;;;;;;;3.97;3.60;;;11.10;59.50;;;;;;4969562;28;20439;-54